Time;durP1;ratioP1;P1;durP2;ratioP2;P2;SDS_P1;SDS_P2;PMS_P1;PMS_P2;Temp;Humidity;BMP_temperature;BMP_pressure;BME280_temperature;BME280_humidity;BME280_pressure;Samples;Min_cycle;Max_cycle;Signal;HPM_P1;HPM_P2
2022/06/05 00:00:16;;;;;;;;;;;21.30;76.30;;;19.08;69.16;100721.53;6126286;23;19921;-71
2022/06/05 00:02:55;;;;;;;;;;;21.30;76.30;;;19.07;69.90;100723.44;6152566;23;19920;-71
2022/06/05 00:05:26;;;;;;;;;;;21.30;76.30;;;19.06;70.15;100723.69;6152512;23;19999;-71
2022/06/05 00:08:05;;;;;;;;;;;21.30;76.40;;;19.04;70.17;100726.69;6151601;23;20003;-72
2022/06/05 00:10:38;;;;;;;;;;;21.30;76.60;;;19.02;70.38;100720.56;6152554;23;19916;-71
2022/06/05 00:13:15;;;;;;;;;;;21.20;76.60;;;19.01;70.28;100726.31;6152300;23;19920;-71
2022/06/05 00:15:42;;;;;;;;;;;21.20;76.70;;;18.99;70.99;100726.53;6152229;23;19999;-72
2022/06/05 00:18:11;;;;;;;;;;;21.20;76.90;;;18.97;70.39;100734.22;6151392;23;19927;-71
2022/06/05 00:20:38;;;;;;;;;;;21.20;77.00;;;18.94;71.31;100737.44;6151841;23;19920;-71
2022/06/05 00:23:05;;;;;;;;;;;21.10;77.10;;;18.92;71.36;100736.81;6152113;23;20011;-72
2022/06/05 00:25:39;;;;;;;;;;;21.10;77.40;;;18.88;72.01;100732.84;6152146;23;19916;-71
2022/06/05 00:28:13;;;;;;;;;;;21.10;77.60;;;18.84;71.76;100726.13;6151461;23;20332;-72
2022/06/05 00:30:45;;;;;;;;;;;21.00;77.60;;;18.80;72.32;100714.72;6152344;23;19926;-71
2022/06/05 00:33:18;;;;;;;;;;;21.00;77.80;;;18.75;72.75;100712.66;6152502;23;19999;-71
2022/06/05 00:35:50;;;;;;;;;;;20.90;78.00;;;18.71;72.93;100714.19;6152096;23;19920;-71
2022/06/05 00:38:22;;;;;;;;;;;20.90;78.10;;;18.66;73.19;100711.31;6151449;23;20328;-71
2022/06/05 00:41:05;;;;;;;;;;;20.80;78.20;;;18.62;73.36;100709.22;6152233;23;19955;-72
2022/06/05 00:43:32;;;;;;;;;;;20.80;78.40;;;18.56;73.68;100703.59;6152177;23;19956;-72
2022/06/05 00:45:59;;;;;;;;;;;20.80;78.70;;;18.52;73.85;100707.03;6152049;23;19943;-71
2022/06/05 00:48:28;;;;;;;;;;;20.70;78.80;;;18.47;74.36;100704.16;6151007;23;20251;-71
2022/06/05 00:50:55;;;;;;;;;;;20.70;79.00;;;18.41;74.35;100691.28;6152063;23;19927;-71
2022/06/05 00:53:22;;;;;;;;;;;20.60;79.20;;;18.35;74.87;100693.91;6151883;23;19971;-71
2022/06/05 00:55:51;;;;;;;;;;;20.50;79.30;;;18.31;75.12;100700.94;6125625;23;19967;-72
2022/06/05 00:58:18;;;;;;;;;;;20.40;79.50;;;18.27;75.44;100698.88;6150992;23;19916;-71
2022/06/05 01:00:49;;;;;;;;;;;20.40;79.70;;;18.20;75.71;100687.09;6151909;23;19920;-72
2022/06/05 01:03:16;;;;;;;;;;;20.30;79.90;;;18.15;75.96;100685.03;6151863;23;19926;-72
2022/06/05 01:05:45;;;;;;;;;;;20.30;80.10;;;18.10;76.21;100690.41;6125634;23;19951;-72
2022/06/05 01:08:14;;;;;;;;;;;20.20;80.20;;;18.06;76.32;100694.69;6124817;23;19920;-72
2022/06/05 01:10:48;;;;;;;;;;;20.20;80.40;;;17.98;76.74;100691.16;6152106;23;20406;-72
2022/06/05 01:13:26;;;;;;;;;;;20.10;80.60;;;17.93;76.74;100688.28;6152196;23;19952;-71
2022/06/05 01:15:57;;;;;;;;;;;20.10;80.80;;;17.89;77.37;100681.50;6151958;23;19922;-72
2022/06/05 01:18:31;;;;;;;;;;;20.00;81.00;;;17.83;77.76;100676.91;6151102;23;19920;-72
2022/06/05 01:21:11;;;;;;;;;;;20.00;81.10;;;17.80;77.84;100669.13;6151860;23;19917;-72
2022/06/05 01:23:50;;;;;;;;;;;20.00;81.30;;;17.74;78.24;100673.63;6151679;23;19916;-72
2022/06/05 01:26:25;;;;;;;;;;;19.90;81.60;;;17.71;78.56;100676.00;6151653;23;19920;-72
2022/06/05 01:28:56;;;;;;;;;;;19.80;81.60;;;17.65;78.90;100674.13;6150789;23;19947;-71
2022/06/05 01:31:28;;;;;;;;;;;19.80;81.80;;;17.59;79.13;100675.88;6151788;23;19994;-72
2022/06/05 01:34:02;;;;;;;;;;;19.70;82.00;;;17.54;79.36;100676.56;6151636;23;20337;-71
2022/06/05 01:36:35;;;;;;;;;;;19.70;82.30;;;17.48;79.65;100674.72;6151718;23;19920;-71
2022/06/05 01:39:07;;;;;;;;;;;19.70;82.50;;;17.44;79.99;100670.75;6150870;23;19972;-72
2022/06/05 01:41:38;;;;;;;;;;;19.60;82.60;;;17.39;80.52;100659.56;6151883;23;19920;-71
2022/06/05 01:44:09;;;;;;;;;;;19.60;82.80;;;17.35;80.42;100641.84;6151723;23;20399;-72
2022/06/05 01:46:38;;;;;;;;;;;19.50;83.00;;;17.32;80.90;100642.28;6152015;23;19921;-71
2022/06/05 01:49:12;;;;;;;;;;;19.50;83.20;;;17.29;80.99;100643.59;6150847;23;19944;-72
2022/06/05 01:51:46;;;;;;;;;;;19.40;83.20;;;17.24;81.28;100637.91;6151926;23;20645;-72
2022/06/05 01:54:20;;;;;;;;;;;19.40;83.40;;;17.21;81.57;100635.63;6151745;23;19927;-72
2022/06/05 01:56:51;;;;;;;;;;;19.40;83.50;;;17.16;82.10;100628.03;6152079;23;20252;-71
2022/06/05 01:59:22;;;;;;;;;;;19.30;83.80;;;17.14;82.24;100626.59;6124561;23;19923;-72
2022/06/05 02:01:53;;;;;;;;;;;19.30;83.90;;;17.10;82.45;100630.88;6151497;23;19999;-72
2022/06/05 02:04:24;;;;;;;;;;;19.30;84.10;;;17.07;82.74;100621.13;6151528;23;20283;-72
2022/06/05 02:06:54;;;;;;;;;;;19.30;84.30;;;17.04;82.25;100615.25;6151908;23;19932;-71
2022/06/05 02:09:24;;;;;;;;;;;19.20;84.30;;;17.00;83.32;100617.59;6152575;23;19927;-71
2022/06/05 02:11:52;;;;;;;;;;;19.20;84.50;;;16.96;83.44;100608.97;6153605;23;20007;-71
2022/06/05 02:14:20;;;;;;;;;;;19.10;84.70;;;16.92;83.97;100610.47;6153468;23;19927;-71
2022/06/05 02:16:47;;;;;;;;;;;19.10;84.80;;;16.89;83.93;100610.09;6153300;23;19948;-72
2022/06/05 02:19:16;;;;;;;;;;;19.10;84.90;;;16.87;84.13;100598.47;6152620;23;19917;-72
2022/06/05 02:21:44;;;;;;;;;;;19.10;85.00;;;16.86;84.61;100599.53;6153707;23;19951;-71
2022/06/05 02:24:12;;;;;;;;;;;19.10;85.20;;;16.84;84.58;100596.19;6153378;23;19920;-72
2022/06/05 02:26:41;;;;;;;;;;;19.00;85.30;;;16.81;84.70;100592.78;6153404;23;19958;-72
2022/06/05 02:29:14;;;;;;;;;;;19.00;85.40;;;16.79;84.82;100583.94;6152393;23;20306;-71
2022/06/05 02:31:59;;;;;;;;;;;19.00;85.40;;;16.76;85.30;100578.03;6153452;23;19920;-71
2022/06/05 02:34:34;;;;;;;;;;;19.00;85.60;;;16.73;85.15;100573.81;6153208;23;19921;-72
2022/06/05 02:37:07;;;;;;;;;;;19.00;85.70;;;16.69;85.94;100567.06;6153286;23;19927;-72
2022/06/05 02:39:39;;;;;;;;;;;18.90;85.90;;;16.68;85.00;100559.91;6152282;23;20006;-72
2022/06/05 02:42:14;;;;;;;;;;;18.90;85.90;;;16.67;86.07;100546.38;6153271;23;20003;-71
2022/06/05 02:44:49;;;;;;;;;;;18.90;86.10;;;16.64;86.35;100547.69;6152966;23;20320;-72
2022/06/05 02:47:21;;;;;;;;;;;18.90;86.20;;;16.61;86.49;100537.97;6153407;23;19948;-71
2022/06/05 02:49:53;;;;;;;;;;;18.90;86.40;;;16.58;86.73;100535.69;6152257;23;19944;-72
2022/06/05 02:52:22;;;;;;;;;;;18.80;86.40;;;16.58;86.58;100527.44;6153365;23;20404;-71
2022/06/05 02:54:57;;;;;;;;;;;18.80;86.50;;;16.55;86.80;100521.56;6153289;23;20327;-71
2022/06/05 02:57:24;;;;;;;;;;;18.80;86.80;;;16.53;86.70;100512.69;6153356;23;19920;-71
2022/06/05 02:59:52;;;;;;;;;;;18.80;86.70;;;16.51;87.13;100509.34;6152100;23;19920;-72
2022/06/05 03:05:04;;;;;;;;;;;18.70;87.10;;;16.48;87.67;100507.84;6152779;23;20069;-71
2022/06/05 03:07:31;;;;;;;;;;;18.80;87.20;;;16.47;87.98;100502.56;6152821;23;19916;-72
2022/06/05 03:09:58;;;;;;;;;;;18.70;87.20;;;16.45;87.87;100493.72;6152447;23;19999;-71
2022/06/05 03:12:25;;;;;;;;;;;18.70;87.30;;;16.42;88.14;100490.34;6152993;23;20003;-71
2022/06/05 03:14:56;;;;;;;;;;;18.70;87.40;;;16.42;87.68;100493.09;6152770;23;19921;-71
2022/06/05 03:17:23;;;;;;;;;;;18.70;87.50;;;16.41;88.39;100494.19;6153000;23;19920;-72
2022/06/05 03:19:50;;;;;;;;;;;18.70;87.70;;;16.41;87.84;100493.31;6152001;23;20003;-71
2022/06/05 03:22:18;;;;;;;;;;;18.70;87.70;;;16.39;88.55;100490.81;6153006;23;19920;-72
2022/06/05 03:24:45;;;;;;;;;;;18.70;87.70;;;16.39;88.14;100476.22;6153074;23;19971;-72
2022/06/05 03:27:12;;;;;;;;;;;18.70;87.80;;;16.39;88.59;100478.97;6152978;23;20432;-71
2022/06/05 03:29:39;;;;;;;;;;;18.70;87.90;;;16.37;89.28;100471.00;6152355;23;20310;-72
2022/06/05 03:32:08;;;;;;;;;;;18.70;87.90;;;16.38;89.02;100474.56;6152923;23;19927;-71
2022/06/05 03:34:35;;;;;;;;;;;18.70;88.00;;;16.37;89.05;100481.97;6153035;23;20249;-71
2022/06/05 03:37:03;;;;;;;;;;;18.70;88.00;;;16.38;88.84;100483.63;6152851;23;20347;-72
2022/06/05 03:39:31;;;;;;;;;;;18.70;88.10;;;16.37;89.18;100481.97;6151804;23;19921;-71
2022/06/05 03:41:57;;;;;;;;;;;18.70;88.20;;;16.38;89.48;100486.38;6152832;23;19920;-72
2022/06/05 03:44:24;;;;;;;;;;;18.70;88.20;;;16.38;89.78;100482.81;6152605;23;19922;-71
2022/06/05 03:46:52;;;;;;;;;;;18.70;88.40;;;16.37;89.46;100483.84;6152684;23;19920;-72
2022/06/05 03:49:20;;;;;;;;;;;18.70;88.40;;;16.38;89.83;100478.16;6151468;23;19920;-71
2022/06/05 03:51:47;;;;;;;;;;;18.70;88.50;;;16.38;89.72;100472.66;6152329;23;19950;-72
2022/06/05 03:54:14;;;;;;;;;;;18.80;88.50;;;16.39;88.81;100468.00;6152536;23;19920;-72
2022/06/05 03:56:41;;;;;;;;;;;18.70;88.60;;;16.40;90.22;100476.00;6152529;23;20328;-72
2022/06/05 03:59:08;;;;;;;;;;;18.80;88.70;;;16.40;90.41;100473.25;6151725;23;19945;-72
2022/06/05 04:01:35;;;;;;;;;;;18.80;88.70;;;16.41;90.67;100466.72;6152357;23;19923;-71
2022/06/05 04:04:03;;;;;;;;;;;18.70;88.80;;;16.40;90.91;100467.78;6152518;23;20023;-72
2022/06/05 04:06:32;;;;;;;;;;;18.80;88.80;;;16.41;89.25;100458.47;6152491;23;20004;-72
2022/06/05 04:09:01;;;;;;;;;;;18.80;88.80;;;16.41;89.43;100463.97;6151634;23;19942;-72
2022/06/05 04:11:31;;;;;;;;;;;18.80;88.70;;;16.43;89.28;100463.75;6152885;23;19975;-72
2022/06/05 04:13:58;;;;;;;;;;;18.80;88.80;;;16.45;89.05;100456.13;6152655;23;19959;-71
2022/06/05 04:16:27;;;;;;;;;;;18.90;88.90;;;16.48;89.33;100457.56;6152099;23;20324;-72
2022/06/05 04:18:54;;;;;;;;;;;18.90;88.90;;;16.49;89.86;100467.50;6151531;23;20591;-71
2022/06/05 04:21:22;;;;;;;;;;;18.90;88.90;;;16.50;89.38;100474.66;6152242;23;19920;-72
2022/06/05 04:23:51;;;;;;;;;;;18.90;88.90;;;16.50;90.50;100475.50;6152175;23;20363;-71
2022/06/05 04:26:20;;;;;;;;;;;18.90;89.00;;;16.51;90.34;100465.38;6152218;23;19927;-71
2022/06/05 04:28:47;;;;;;;;;;;18.90;88.90;;;16.53;91.24;100463.25;6151380;23;19924;-71
2022/06/05 04:31:19;;;;;;;;;;;19.00;89.10;;;16.53;90.38;100455.00;6151787;23;19932;-71
2022/06/05 04:33:46;;;;;;;;;;;19.00;89.00;;;16.55;90.01;100455.63;6152098;23;20263;-71
2022/06/05 04:36:13;;;;;;;;;;;19.00;89.00;;;16.53;89.72;100457.75;6152247;23;19924;-71
2022/06/05 04:38:40;;;;;;;;;;;19.00;88.90;;;16.55;89.79;100455.63;6151341;23;19995;-71
2022/06/05 04:41:09;;;;;;;;;;;19.00;88.90;;;16.57;89.80;100458.97;6152200;23;19927;-71
2022/06/05 04:43:36;;;;;;;;;;;19.00;88.80;;;16.57;90.95;100461.72;6152399;23;19948;-71
2022/06/05 04:46:03;;;;;;;;;;;19.00;89.00;;;16.59;91.33;100459.59;6152243;23;20007;-71
2022/06/05 04:48:30;;;;;;;;;;;19.00;89.20;;;16.60;90.92;100464.00;6151246;23;20250;-71
2022/06/05 04:50:57;;;;;;;;;;;19.00;89.20;;;16.59;89.67;100463.16;6152304;23;20378;-71
2022/06/05 04:53:24;;;;;;;;;;;19.00;89.10;;;16.60;89.63;100469.50;6152509;23;19927;-71
2022/06/05 04:55:51;;;;;;;;;;;19.00;89.10;;;16.61;89.58;100476.69;6150396;23;19952;-72
2022/06/05 04:58:20;;;;;;;;;;;19.00;89.00;;;16.62;91.92;100489.38;6151202;23;19921;-72
2022/06/05 05:00:47;;;;;;;;;;;19.00;89.40;;;16.65;91.74;100494.41;6151995;23;19921;-72
2022/06/05 05:03:14;;;;;;;;;;;19.10;89.50;;;16.65;91.76;100488.91;6151898;23;20003;-72
2022/06/05 05:05:42;;;;;;;;;;;19.10;89.50;;;16.66;91.79;100496.09;6151582;23;19917;-71
2022/06/05 05:08:09;;;;;;;;;;;19.10;89.50;;;16.68;91.03;100488.47;6151010;23;19920;-71
2022/06/05 05:10:36;;;;;;;;;;;19.10;89.70;;;16.68;92.20;100491.22;6125897;23;19916;-72
2022/06/05 05:13:03;;;;;;;;;;;19.10;89.70;;;16.68;91.93;100499.47;6152098;23;19975;-72
2022/06/05 05:15:31;;;;;;;;;;;19.10;89.60;;;16.70;91.95;100501.97;6151784;23;19927;-72
2022/06/05 05:17:58;;;;;;;;;;;19.10;89.70;;;16.71;91.06;100504.47;6151147;23;19921;-71
2022/06/05 05:20:26;;;;;;;;;;;19.10;89.80;;;16.73;92.67;100507.00;6152048;23;19921;-71
2022/06/05 05:22:53;;;;;;;;;;;19.10;89.90;;;16.73;93.36;100502.34;6125729;23;19927;-72
2022/06/05 05:25:20;;;;;;;;;;;19.10;90.00;;;16.75;93.31;100505.75;6151890;23;19926;-72
2022/06/05 05:27:47;;;;;;;;;;;19.20;90.00;;;16.77;93.53;100513.72;6151052;23;19926;-71
2022/06/05 05:30:14;;;;;;;;;;;19.20;90.00;;;16.77;93.03;100514.59;6151583;23;19925;-71
2022/06/05 05:32:42;;;;;;;;;;;19.20;89.90;;;16.78;92.38;100516.25;6151856;23;19938;-72
2022/06/05 05:35:10;;;;;;;;;;;19.20;90.00;;;16.80;92.00;100510.53;6151514;23;19993;-71
2022/06/05 05:37:37;;;;;;;;;;;19.20;90.00;;;16.83;92.20;100512.03;6151290;23;20271;-72
2022/06/05 05:42:49;;;;;;;;;;;19.30;90.00;;;16.86;92.30;100506.91;6126600;23;19923;-71
2022/06/05 05:45:17;;;;;;;;;;;19.30;90.20;;;16.88;92.41;100509.44;6153716;23;20003;-72
2022/06/05 05:47:45;;;;;;;;;;;19.30;90.10;;;16.90;90.59;100504.56;6153175;23;20406;-71
2022/06/05 05:50:15;;;;;;;;;;;19.40;89.70;;;16.91;90.75;100507.09;6153821;23;20003;-72
2022/06/05 05:52:42;;;;;;;;;;;19.40;89.80;;;16.94;91.61;100503.88;6154033;23;19938;-72
2022/06/05 05:55:12;;;;;;;;;;;19.40;90.00;;;16.98;91.41;100498.75;6153693;23;19928;-72
2022/06/05 05:57:40;;;;;;;;;;;19.40;90.20;;;17.00;91.26;100496.63;6153174;23;19999;-72
2022/06/05 06:00:09;;;;;;;;;;;19.40;89.90;;;17.00;90.45;100500.22;6153638;23;19924;-72
2022/06/05 06:02:37;;;;;;;;;;;19.50;89.80;;;17.04;91.23;100492.38;6153854;23;20313;-72
2022/06/05 06:05:06;;;;;;;;;;;19.50;90.10;;;17.06;90.98;100487.47;6127094;23;19924;-72
2022/06/05 06:07:33;;;;;;;;;;;19.50;90.10;;;17.12;91.39;100491.22;6153529;23;19917;-72
2022/06/05 06:10:00;;;;;;;;;;;19.50;90.20;;;17.14;90.62;100481.66;6152890;23;19967;-72
2022/06/05 06:12:28;;;;;;;;;;;19.60;90.00;;;17.18;92.33;100474.63;6153462;23;20263;-71
2022/06/05 06:14:55;;;;;;;;;;;19.70;90.40;;;17.22;91.38;100471.44;6153386;23;19924;-71
2022/06/05 06:17:22;;;;;;;;;;;19.70;90.20;;;17.24;90.59;100466.53;6153440;23;20235;-71
2022/06/05 06:19:49;;;;;;;;;;;19.70;90.00;;;17.27;89.45;100460.56;6152673;23;19927;-68
2022/06/05 06:22:18;;;;;;;;;;;19.80;89.90;;;17.31;90.26;100461.81;6153413;23;19947;-68
2022/06/05 06:24:45;;;;;;;;;;;19.80;89.80;;;17.33;90.38;100454.16;6153392;23;20003;-68
2022/06/05 06:27:12;;;;;;;;;;;19.80;89.80;;;17.37;90.37;100442.47;6153454;23;19916;-69
2022/06/05 06:29:39;;;;;;;;;;;19.90;90.00;;;17.40;89.48;100443.91;6152714;23;20003;-68
2022/06/05 06:32:07;;;;;;;;;;;19.90;89.70;;;17.43;89.65;100440.69;6153407;23;19975;-69
2022/06/05 06:34:34;;;;;;;;;;;19.90;89.60;;;17.47;89.54;100447.41;6153564;23;19927;-69
2022/06/05 06:37:01;;;;;;;;;;;20.00;89.70;;;17.50;89.79;100438.69;6153279;23;20419;-68
2022/06/05 06:39:29;;;;;;;;;;;20.00;89.50;;;17.52;89.40;100439.31;6152619;23;19928;-68
2022/06/05 06:41:56;;;;;;;;;;;20.00;89.60;;;17.55;89.30;100438.84;6153248;23;19921;-69
2022/06/05 06:44:23;;;;;;;;;;;20.10;89.40;;;17.57;88.58;100431.19;6153326;23;19920;-69
2022/06/05 06:46:50;;;;;;;;;;;20.10;89.30;;;17.56;88.43;100425.91;6153348;23;19920;-69
2022/06/05 06:49:17;;;;;;;;;;;20.00;88.60;;;17.59;88.72;100422.69;6152196;23;19917;-68
2022/06/05 06:51:44;;;;;;;;;;;20.00;89.20;;;17.62;87.88;100411.22;6153254;23;19931;-71
2022/06/05 06:54:12;;;;;;;;;;;20.10;89.10;;;17.64;88.18;100402.75;6152915;23;19926;-71
2022/06/05 06:56:40;;;;;;;;;;;20.10;88.90;;;17.65;88.01;100393.38;6153243;23;19917;-71
2022/06/05 06:59:07;;;;;;;;;;;20.10;89.10;;;17.67;88.24;100396.75;6152240;23;19917;-71
2022/06/05 07:01:34;;;;;;;;;;;20.10;89.10;;;17.69;88.67;100391.88;6153194;23;19925;-71
2022/06/05 07:04:01;;;;;;;;;;;20.10;89.20;;;17.72;88.35;100383.13;6153072;23;20011;-71
2022/06/05 07:06:28;;;;;;;;;;;20.10;89.20;;;17.74;87.49;100373.56;6153148;23;19920;-71
2022/06/05 07:08:55;;;;;;;;;;;20.10;88.80;;;17.79;87.62;100367.34;6152217;23;19924;-71
2022/06/05 07:11:22;;;;;;;;;;;20.10;89.30;;;17.80;87.24;100369.03;6153267;23;19917;-71
2022/06/05 07:13:51;;;;;;;;;;;20.10;88.90;;;17.82;86.82;100361.38;6153043;23;19927;-71
2022/06/05 07:16:18;;;;;;;;;;;20.10;89.00;;;17.84;86.49;100348.25;6153196;23;19950;-71
2022/06/05 07:18:46;;;;;;;;;;;20.20;88.90;;;17.89;86.84;100351.13;6151559;23;19999;-71
2022/06/05 07:21:15;;;;;;;;;;;20.20;89.20;;;17.92;86.82;100345.16;6151218;23;20251;-71
2022/06/05 07:23:42;;;;;;;;;;;20.20;89.20;;;17.93;86.47;100344.09;6150857;23;20004;-71
2022/06/05 07:26:10;;;;;;;;;;;20.30;89.00;;;17.98;86.44;100335.09;6125147;23;19920;-76
2022/06/05 07:28:38;;;;;;;;;;;20.30;89.10;;;18.03;86.14;100342.63;6150888;23;19920;-71
2022/06/05 07:31:07;;;;;;;;;;;20.40;89.10;;;18.06;86.01;100333.91;6152580;23;19932;-71
2022/06/05 07:33:35;;;;;;;;;;;20.40;88.70;;;18.04;85.42;100327.78;6152993;23;19928;-71
2022/06/05 07:36:04;;;;;;;;;;;20.40;87.90;;;18.07;86.00;100335.59;6152797;23;19951;-71
2022/06/05 07:38:33;;;;;;;;;;;20.40;88.40;;;18.11;86.00;100331.28;6151959;23;19947;-71
2022/06/05 07:41:00;;;;;;;;;;;20.40;88.60;;;18.08;85.36;100326.25;6152753;23;19920;-71
2022/06/05 07:43:27;;;;;;;;;;;20.40;88.00;;;18.14;85.17;100328.03;6152814;23;19920;-71
2022/06/05 07:45:54;;;;;;;;;;;20.40;88.60;;;18.19;85.30;100322.66;6152734;23;19920;-71
2022/06/05 07:48:23;;;;;;;;;;;20.50;89.00;;;18.25;85.66;100329.13;6151950;23;19924;-71
2022/06/05 07:56:29;;;;;;;;;;;20.70;88.10;;;18.40;85.09;100331.38;6152759;23;19921;-71
2022/06/05 07:58:56;;;;;;;;;;;20.70;88.70;;;18.45;84.63;100325.97;6151705;23;19999;-71
2022/06/05 08:01:23;;;;;;;;;;;20.80;88.30;;;18.44;84.68;100319.63;6152405;23;19995;-71
2022/06/05 08:03:51;;;;;;;;;;;20.70;87.60;;;18.51;84.93;100319.50;6152415;23;19920;-71
2022/06/05 08:06:18;;;;;;;;;;;20.80;88.50;;;18.59;85.48;100321.88;6152125;23;19977;-71
2022/06/05 08:08:45;;;;;;;;;;;20.80;88.60;;;18.65;84.77;100317.31;6151491;23;20000;-71
2022/06/05 08:11:12;;;;;;;;;;;20.90;88.50;;;18.73;84.72;100323.31;6152724;23;19927;-71
2022/06/05 08:13:39;;;;;;;;;;;21.00;89.00;;;18.81;84.47;100324.03;6152617;23;20003;-71
2022/06/05 08:16:07;;;;;;;;;;;21.00;88.40;;;18.85;84.43;100317.78;6126287;23;19916;-71
2022/06/05 08:18:34;;;;;;;;;;;21.20;88.20;;;18.94;84.59;100318.22;6151647;23;20003;-71
2022/06/05 08:21:03;;;;;;;;;;;21.30;88.70;;;19.01;84.64;100316.16;6152350;23;19921;-71
2022/06/05 08:23:30;;;;;;;;;;;21.30;88.60;;;19.09;85.15;100310.25;6152674;23;19922;-71
2022/06/05 08:25:57;;;;;;;;;;;21.50;88.60;;;19.16;84.69;100320.31;6152256;23;19917;-71
2022/06/05 08:28:25;;;;;;;;;;;21.60;88.50;;;19.23;84.35;100312.72;6151420;23;19920;-71
2022/06/05 08:30:52;;;;;;;;;;;21.70;87.40;;;19.30;84.71;100318.91;6152434;23;20355;-71
2022/06/05 08:33:19;;;;;;;;;;;21.70;88.00;;;19.37;84.14;100321.53;6152376;23;20003;-71
2022/06/05 08:35:48;;;;;;;;;;;21.80;87.50;;;19.41;83.92;100306.16;6151925;23;20359;-71
2022/06/05 08:44:01;;;;;;;;;;;22.10;87.60;;;19.68;83.60;100300.81;6152128;23;19920;-71
2022/06/05 08:46:32;;;;;;;;;;;22.10;87.30;;;19.75;83.65;100309.00;6152334;23;19924;-71
2022/06/05 08:49:02;;;;;;;;;;;22.20;87.20;;;19.82;83.27;100307.75;6151513;23;19999;-71
2022/06/05 08:51:40;;;;;;;;;;;22.30;87.30;;;19.95;83.87;100308.47;6152301;23;19917;-71
2022/06/05 08:54:13;;;;;;;;;;;22.40;87.50;;;20.03;82.95;100297.00;6152365;23;20366;-71
2022/06/05 08:56:43;;;;;;;;;;;22.50;86.00;;;20.10;82.57;100284.69;6152247;23;19942;-70
2022/06/05 08:59:16;;;;;;;;;;;22.50;86.60;;;20.18;82.62;100297.25;6151341;23;19921;-71
2022/06/05 09:01:49;;;;;;;;;;;22.60;86.40;;;20.25;82.43;100303.41;6151167;23;19920;-71
2022/06/05 09:04:26;;;;;;;;;;;22.60;86.60;;;20.32;83.29;100300.47;6152013;23;19927;-71
2022/06/05 09:06:56;;;;;;;;;;;22.80;86.90;;;20.38;82.82;100298.63;6151281;23;19998;-72
2022/06/05 09:09:27;;;;;;;;;;;22.80;86.40;;;20.42;82.88;100294.25;6150935;23;19939;-70
2022/06/05 09:11:59;;;;;;;;;;;22.90;86.50;;;20.48;83.42;100298.75;6151967;23;19995;-70
2022/06/05 09:14:34;;;;;;;;;;;23.00;86.40;;;20.53;83.57;100298.81;6150604;23;19921;-71
2022/06/05 09:17:04;;;;;;;;;;;23.00;86.10;;;20.57;82.70;100293.63;6151675;23;20683;-71
2022/06/05 09:19:31;;;;;;;;;;;23.00;85.80;;;20.61;82.94;100287.34;6123780;23;20006;-70
2022/06/05 09:22:04;;;;;;;;;;;23.20;86.00;;;20.65;83.27;100288.50;6151773;23;19975;-71
2022/06/05 09:24:40;;;;;;;;;;;23.20;85.70;;;20.69;82.63;100277.75;6151740;23;19952;-71
2022/06/05 09:27:15;;;;;;;;;;;23.20;85.80;;;20.74;82.50;100280.59;6125718;23;20307;-71
2022/06/05 09:29:46;;;;;;;;;;;23.30;85.80;;;20.77;82.34;100282.00;6150820;23;20504;-71
2022/06/05 09:32:35;;;;;;;;;;;23.30;85.10;;;20.80;82.44;100281.50;6151908;23;19926;-70
2022/06/05 09:35:13;;;;;;;;;;;23.30;85.40;;;20.83;82.62;100272.69;6151837;23;19927;-71
2022/06/05 09:37:44;;;;;;;;;;;23.40;85.40;;;20.85;82.78;100274.09;6151346;23;19928;-71
2022/06/05 09:40:17;;;;;;;;;;;23.40;85.40;;;20.87;83.23;100274.66;6151767;23;19916;-70
2022/06/05 09:43:15;;;;;;;;;;;23.40;85.40;;;20.89;83.10;100275.25;6151921;23;19921;-71
2022/06/05 09:45:54;;;;;;;;;;;23.40;85.40;;;20.89;83.20;100272.47;6145665;23;19927;-70
2022/06/05 09:48:33;;;;;;;;;;;23.50;85.50;;;20.89;83.06;100271.66;6151001;23;20351;-70
2022/06/05 09:51:00;;;;;;;;;;;23.40;85.30;;;20.91;84.15;100279.69;6151646;23;19963;-70
2022/06/05 09:53:30;;;;;;;;;;;23.40;85.90;;;20.88;83.23;100273.56;6151179;23;19927;-70
2022/06/05 09:56:07;;;;;;;;;;;23.40;85.60;;;20.89;83.43;100277.19;6151700;23;19999;-70
2022/06/05 09:58:52;;;;;;;;;;;23.40;85.70;;;20.90;83.37;100276.06;6150811;23;19920;-70
2022/06/05 10:01:23;;;;;;;;;;;23.40;85.60;;;20.89;83.29;100283.53;6150844;23;19920;-72
2022/06/05 10:03:50;;;;;;;;;;;23.40;85.70;;;20.89;84.02;100294.63;6151482;23;19940;-77
2022/06/05 10:06:23;;;;;;;;;;;23.30;86.00;;;20.95;86.49;100292.75;6149931;23;20246;-85
2022/06/05 10:08:54;;;;;;;;;;;23.10;88.80;;;20.78;87.71;100294.75;6150228;23;20320;-92
2022/06/05 10:11:31;;;;;;;;;;;22.80;90.10;;;20.62;90.28;100280.75;6150509;23;20352;-83
2022/06/05 10:14:04;;;;;;;;;;;22.40;92.80;;;20.55;91.36;100268.16;6149241;23;20241;-84
2022/06/05 10:16:36;;;;;;;;;;;22.10;94.40;;;20.50;92.34;100278.06;6150756;23;19972;-81
2022/06/05 10:19:18;;;;;;;;;;;21.90;95.50;;;20.46;95.06;100289.88;6149814;23;19951;-81
2022/06/05 10:21:52;;;;;;;;;;;21.70;96.90;;;20.38;97.42;100293.91;6150986;23;19924;-81
2022/06/05 10:24:30;;;;;;;;;;;21.60;98.70;;;20.30;100.00;100286.91;6151430;23;19920;-81
2022/06/05 10:27:01;;;;;;;;;;;21.50;99.90;;;20.20;100.00;100288.69;6151313;23;19927;-82
2022/06/05 10:29:32;;;;;;;;;;;21.40;99.90;;;20.21;100.00;100273.78;6151836;23;19936;-81
2022/06/05 10:32:04;;;;;;;;;;;21.30;99.90;;;20.20;100.00;100275.72;6153361;23;20263;-82
2022/06/05 10:34:41;;;;;;;;;;;21.20;99.90;;;20.23;100.00;100279.91;6152634;23;19920;-81
2022/06/05 10:37:21;;;;;;;;;;;21.20;99.90;;;20.14;100.00;100271.19;6153296;23;19924;-81
2022/06/05 10:39:57;;;;;;;;;;;21.20;99.90;;;20.05;100.00;100275.50;6152585;23;19948;-81
2022/06/05 10:42:33;;;;;;;;;;;21.30;99.90;;;20.00;100.00;100269.88;6153208;23;19920;-81
2022/06/05 10:45:10;;;;;;;;;;;21.20;99.90;;;19.96;100.00;100266.78;6153137;23;19935;-81
2022/06/05 10:47:42;;;;;;;;;;;21.10;99.90;;;19.99;100.00;100258.00;6152915;23;19920;-81
2022/06/05 10:50:13;;;;;;;;;;;21.10;99.90;;;20.02;100.00;100262.19;6153237;23;19995;-81
2022/06/05 10:52:44;;;;;;;;;;;21.10;99.90;;;20.03;100.00;100253.66;6153578;23;20518;-82
2022/06/05 10:55:25;;;;;;;;;;;21.10;99.90;;;20.05;100.00;100256.16;6126353;23;20074;-81
2022/06/05 10:58:05;;;;;;;;;;;21.10;99.90;;;19.93;100.00;100253.47;6125535;23;19921;-82
2022/06/05 11:00:38;;;;;;;;;;;21.10;99.90;;;19.88;100.00;100250.66;6153548;23;19958;-83
2022/06/05 11:03:13;;;;;;;;;;;21.10;99.90;;;19.84;100.00;100249.50;6153136;23;19923;-83
2022/06/05 11:05:47;;;;;;;;;;;21.00;99.90;;;19.80;100.00;100240.88;6126441;23;19926;-83
2022/06/05 11:08:29;;;;;;;;;;;21.00;99.90;;;19.72;100.00;100235.75;6152025;23;19916;-83
2022/06/05 11:14:10;;;;;;;;;;;21.00;99.90;;;19.64;100.00;100233.41;6151626;23;19920;-81
2022/06/05 11:16:43;;;;;;;;;;;20.90;99.90;;;19.61;100.00;100236.66;6152810;23;20379;-81
2022/06/05 11:19:15;;;;;;;;;;;20.90;99.90;;;19.61;100.00;100218.19;6151974;23;19921;-81
2022/06/05 11:21:43;;;;;;;;;;;20.90;99.90;;;19.69;100.00;100220.50;6152914;23;19967;-89
2022/06/05 11:24:17;;;;;;;;;;;20.90;99.90;;;19.70;100.00;100219.44;6127020;23;19924;-83
2022/06/05 11:26:52;;;;;;;;;;;20.90;99.90;;;19.69;100.00;100214.16;6150702;23;19959;-82
2022/06/05 11:29:26;;;;;;;;;;;20.90;99.90;;;19.67;100.00;100208.06;6148076;23;20002;-81
2022/06/05 11:32:11;;;;;;;;;;;20.90;99.90;;;19.64;100.00;100211.31;6151943;23;19967;-83
2022/06/05 11:34:47;;;;;;;;;;;20.90;99.90;;;19.63;100.00;100206.88;6151684;23;20411;-82
2022/06/05 11:37:40;;;;;;;;;;;20.90;99.90;;;19.70;100.00;100199.25;6151611;23;19944;-83
2022/06/05 11:40:17;;;;;;;;;;;20.90;99.90;;;19.73;100.00;100190.50;6151906;23;20008;-83
2022/06/05 11:42:50;;;;;;;;;;;20.90;99.90;;;19.79;100.00;100191.41;6151387;23;19929;-83